sensor_id;sensor_type;location;lat;lon;timestamp;temperature;humidity
52879;DHT22;38747;53.140;6.498;2023-04-24T00:01:27;10.80;99.90
52879;DHT22;38747;53.140;6.498;2023-04-24T00:03:55;10.80;99.90
52879;DHT22;38747;53.140;6.498;2023-04-24T00:06:25;10.80;99.90
52879;DHT22;38747;53.140;6.498;2023-04-24T00:08:59;10.80;99.90
52879;DHT22;38747;53.140;6.498;2023-04-24T00:11:26;10.80;99.90
52879;DHT22;38747;53.140;6.498;2023-04-24T00:13:52;10.80;99.90
52879;DHT22;38747;53.140;6.498;2023-04-24T00:16:18;10.80;99.90
52879;DHT22;38747;53.140;6.498;2023-04-24T00:18:43;10.80;99.90
52879;DHT22;38747;53.140;6.498;2023-04-24T00:21:10;10.80;99.90
52879;DHT22;38747;53.140;6.498;2023-04-24T00:23:36;10.80;99.90
52879;DHT22;38747;53.140;6.498;2023-04-24T00:26:02;10.70;99.90
52879;DHT22;38747;53.140;6.498;2023-04-24T00:28:27;10.70;99.90
52879;DHT22;38747;53.140;6.498;2023-04-24T00:30:53;10.70;99.90
52879;DHT22;38747;53.140;6.498;2023-04-24T00:33:19;10.70;99.90
52879;DHT22;38747;53.140;6.498;2023-04-24T00:35:45;10.70;99.90
52879;DHT22;38747;53.140;6.498;2023-04-24T00:38:11;10.70;99.90
52879;DHT22;38747;53.140;6.498;2023-04-24T00:40:37;10.60;99.90
52879;DHT22;38747;53.140;6.498;2023-04-24T00:43:02;10.50;99.90
52879;DHT22;38747;53.140;6.498;2023-04-24T00:45:29;10.50;99.90
52879;DHT22;38747;53.140;6.498;2023-04-24T00:47:56;10.50;99.90
52879;DHT22;38747;53.140;6.498;2023-04-24T00:50:24;10.50;99.90
52879;DHT22;38747;53.140;6.498;2023-04-24T00:52:50;10.50;99.90
52879;DHT22;38747;53.140;6.498;2023-04-24T00:55:16;10.50;99.90
52879;DHT22;38747;53.140;6.498;2023-04-24T00:57:43;10.50;99.90
52879;DHT22;38747;53.140;6.498;2023-04-24T01:00:09;10.40;99.90
52879;DHT22;38747;53.140;6.498;2023-04-24T01:02:39;10.40;99.90
52879;DHT22;38747;53.140;6.498;2023-04-24T01:05:07;10.40;99.90
52879;DHT22;38747;53.140;6.498;2023-04-24T01:07:34;10.40;99.90
52879;DHT22;38747;53.140;6.498;2023-04-24T01:10:00;10.40;99.90
52879;DHT22;38747;53.140;6.498;2023-04-24T01:12:25;10.40;99.90
52879;DHT22;38747;53.140;6.498;2023-04-24T01:14:51;10.40;99.90
52879;DHT22;38747;53.140;6.498;2023-04-24T01:17:17;10.40;99.90
52879;DHT22;38747;53.140;6.498;2023-04-24T01:19:43;10.40;99.90
52879;DHT22;38747;53.140;6.498;2023-04-24T01:22:15;10.30;99.90
52879;DHT22;38747;53.140;6.498;2023-04-24T01:24:42;10.40;99.90
52879;DHT22;38747;53.140;6.498;2023-04-24T01:27:09;10.30;99.90
52879;DHT22;38747;53.140;6.498;2023-04-24T01:29:36;10.30;99.90
52879;DHT22;38747;53.140;6.498;2023-04-24T01:32:03;10.30;99.90
52879;DHT22;38747;53.140;6.498;2023-04-24T01:34:29;10.30;99.90
52879;DHT22;38747;53.140;6.498;2023-04-24T01:36:55;10.30;99.90
52879;DHT22;38747;53.140;6.498;2023-04-24T01:39:22;10.20;99.90
52879;DHT22;38747;53.140;6.498;2023-04-24T01:41:51;10.20;99.90
52879;DHT22;38747;53.140;6.498;2023-04-24T01:44:18;10.20;99.90
52879;DHT22;38747;53.140;6.498;2023-04-24T01:46:44;10.20;99.90
52879;DHT22;38747;53.140;6.498;2023-04-24T01:49:10;10.20;99.90
52879;DHT22;38747;53.140;6.498;2023-04-24T01:51:36;10.20;99.90
52879;DHT22;38747;53.140;6.498;2023-04-24T01:54:01;10.20;99.90
52879;DHT22;38747;53.140;6.498;2023-04-24T01:56:29;10.20;99.90
52879;DHT22;38747;53.140;6.498;2023-04-24T01:58:56;10.10;99.90
52879;DHT22;38747;53.140;6.498;2023-04-24T02:01:23;10.20;99.90
52879;DHT22;38747;53.140;6.498;2023-04-24T02:03:49;10.20;99.90
52879;DHT22;38747;53.140;6.498;2023-04-24T02:06:15;10.20;99.90
52879;DHT22;38747;53.140;6.498;2023-04-24T02:08:41;10.10;99.90
52879;DHT22;38747;53.140;6.498;2023-04-24T02:11:09;10.20;99.90
52879;DHT22;38747;53.140;6.498;2023-04-24T02:13:35;10.10;99.90
52879;DHT22;38747;53.140;6.498;2023-04-24T02:16:01;10.20;99.90
52879;DHT22;38747;53.140;6.498;2023-04-24T02:18:26;10.10;99.90
52879;DHT22;38747;53.140;6.498;2023-04-24T02:20:52;10.10;99.90
52879;DHT22;38747;53.140;6.498;2023-04-24T02:23:19;10.10;99.90
52879;DHT22;38747;53.140;6.498;2023-04-24T02:25:44;10.20;99.90
52879;DHT22;38747;53.140;6.498;2023-04-24T02:28:11;10.20;99.90
52879;DHT22;38747;53.140;6.498;2023-04-24T02:30:36;10.30;99.90
52879;DHT22;38747;53.140;6.498;2023-04-24T02:33:02;10.20;99.90
52879;DHT22;38747;53.140;6.498;2023-04-24T02:35:28;10.20;99.90
52879;DHT22;38747;53.140;6.498;2023-04-24T02:37:54;10.20;99.90
52879;DHT22;38747;53.140;6.498;2023-04-24T02:40:20;10.10;99.90
52879;DHT22;38747;53.140;6.498;2023-04-24T02:42:45;10.20;99.90
52879;DHT22;38747;53.140;6.498;2023-04-24T02:45:11;10.20;99.90
52879;DHT22;38747;53.140;6.498;2023-04-24T02:47:36;10.20;99.90
52879;DHT22;38747;53.140;6.498;2023-04-24T02:50:03;10.10;99.90
52879;DHT22;38747;53.140;6.498;2023-04-24T02:52:28;10.20;99.90
52879;DHT22;38747;53.140;6.498;2023-04-24T02:54:54;10.10;99.90
52879;DHT22;38747;53.140;6.498;2023-04-24T02:57:20;10.10;99.90
52879;DHT22;38747;53.140;6.498;2023-04-24T02:59:46;10.20;99.90
52879;DHT22;38747;53.140;6.498;2023-04-24T03:02:11;10.20;99.90
52879;DHT22;38747;53.140;6.498;2023-04-24T03:04:37;10.20;99.90
52879;DHT22;38747;53.140;6.498;2023-04-24T03:07:03;10.20;99.90
52879;DHT22;38747;53.140;6.498;2023-04-24T03:09:29;10.20;99.90
52879;DHT22;38747;53.140;6.498;2023-04-24T03:11:55;10.20;99.90
52879;DHT22;38747;53.140;6.498;2023-04-24T03:14:21;10.20;99.90
52879;DHT22;38747;53.140;6.498;2023-04-24T03:16:47;10.20;99.90
52879;DHT22;38747;53.140;6.498;2023-04-24T03:19:13;10.20;99.90
52879;DHT22;38747;53.140;6.498;2023-04-24T03:21:39;10.20;99.90
52879;DHT22;38747;53.140;6.498;2023-04-24T03:24:07;10.20;99.90
52879;DHT22;38747;53.140;6.498;2023-04-24T03:26:33;10.20;99.90
52879;DHT22;38747;53.140;6.498;2023-04-24T03:28:59;10.20;99.90
52879;DHT22;38747;53.140;6.498;2023-04-24T03:31:24;10.20;99.90
52879;DHT22;38747;53.140;6.498;2023-04-24T03:33:51;10.10;99.90
52879;DHT22;38747;53.140;6.498;2023-04-24T03:36:17;10.20;99.90
52879;DHT22;38747;53.140;6.498;2023-04-24T03:38:44;10.10;99.90
52879;DHT22;38747;53.140;6.498;2023-04-24T03:41:10;10.20;99.90
52879;DHT22;38747;53.140;6.498;2023-04-24T03:43:37;10.10;99.90
52879;DHT22;38747;53.140;6.498;2023-04-24T03:46:03;10.20;99.90
52879;DHT22;38747;53.140;6.498;2023-04-24T03:48:29;10.10;99.90
52879;DHT22;38747;53.140;6.498;2023-04-24T03:50:55;10.10;99.90
52879;DHT22;38747;53.140;6.498;2023-04-24T03:53:20;10.10;99.90
52879;DHT22;38747;53.140;6.498;2023-04-24T03:55:46;10.10;99.90
52879;DHT22;38747;53.140;6.498;2023-04-24T03:58:12;10.20;99.90
52879;DHT22;38747;53.140;6.498;2023-04-24T04:00:40;10.10;99.90
52879;DHT22;38747;53.140;6.498;2023-04-24T04:03:06;10.10;99.90
52879;DHT22;38747;53.140;6.498;2023-04-24T04:05:31;10.20;99.90
52879;DHT22;38747;53.140;6.498;2023-04-24T04:07:57;10.10;99.90
52879;DHT22;38747;53.140;6.498;2023-04-24T04:10:23;10.10;99.90
52879;DHT22;38747;53.140;6.498;2023-04-24T04:12:49;10.10;99.90
52879;DHT22;38747;53.140;6.498;2023-04-24T04:15:15;10.10;99.90
52879;DHT22;38747;53.140;6.498;2023-04-24T04:17:40;10.00;99.90
52879;DHT22;38747;53.140;6.498;2023-04-24T04:20:07;10.10;99.90
52879;DHT22;38747;53.140;6.498;2023-04-24T04:22:36;10.00;99.90
52879;DHT22;38747;53.140;6.498;2023-04-24T04:25:02;10.10;99.90
52879;DHT22;38747;53.140;6.498;2023-04-24T04:27:28;10.10;99.90
52879;DHT22;38747;53.140;6.498;2023-04-24T04:30:00;10.00;99.90
52879;DHT22;38747;53.140;6.498;2023-04-24T04:32:33;10.00;99.90
52879;DHT22;38747;53.140;6.498;2023-04-24T04:35:00;10.00;99.90
52879;DHT22;38747;53.140;6.498;2023-04-24T04:37:29;10.00;99.90
52879;DHT22;38747;53.140;6.498;2023-04-24T04:39:55;10.00;99.90
52879;DHT22;38747;53.140;6.498;2023-04-24T04:42:20;10.00;99.90
52879;DHT22;38747;53.140;6.498;2023-04-24T04:44:46;10.00;99.90
52879;DHT22;38747;53.140;6.498;2023-04-24T04:47:12;10.00;99.90
52879;DHT22;38747;53.140;6.498;2023-04-24T04:49:38;10.00;99.90
52879;DHT22;38747;53.140;6.498;2023-04-24T04:52:04;10.00;99.90
52879;DHT22;38747;53.140;6.498;2023-04-24T04:54:30;10.00;99.90
52879;DHT22;38747;53.140;6.498;2023-04-24T04:56:57;10.00;99.90
52879;DHT22;38747;53.140;6.498;2023-04-24T04:59:22;10.00;99.90
52879;DHT22;38747;53.140;6.498;2023-04-24T05:01:48;10.00;99.90
52879;DHT22;38747;53.140;6.498;2023-04-24T05:04:14;10.00;99.90
52879;DHT22;38747;53.140;6.498;2023-04-24T05:06:39;10.00;99.90
52879;DHT22;38747;53.140;6.498;2023-04-24T05:09:05;10.00;99.90
52879;DHT22;38747;53.140;6.498;2023-04-24T05:11:32;10.00;99.90
52879;DHT22;38747;53.140;6.498;2023-04-24T05:13:58;10.00;99.90
52879;DHT22;38747;53.140;6.498;2023-04-24T05:16:24;10.10;99.90
52879;DHT22;38747;53.140;6.498;2023-04-24T05:18:52;10.10;99.90
52879;DHT22;38747;53.140;6.498;2023-04-24T05:21:18;10.10;99.90
52879;DHT22;38747;53.140;6.498;2023-04-24T05:23:43;10.20;99.90
52879;DHT22;38747;53.140;6.498;2023-04-24T05:26:09;10.10;99.90
52879;DHT22;38747;53.140;6.498;2023-04-24T05:28:35;10.10;99.90
52879;DHT22;38747;53.140;6.498;2023-04-24T05:31:02;10.20;99.90
52879;DHT22;38747;53.140;6.498;2023-04-24T05:33:28;10.20;99.90
52879;DHT22;38747;53.140;6.498;2023-04-24T05:35:54;10.20;99.90
52879;DHT22;38747;53.140;6.498;2023-04-24T05:38:20;10.20;99.90
52879;DHT22;38747;53.140;6.498;2023-04-24T05:40:46;10.20;99.90
52879;DHT22;38747;53.140;6.498;2023-04-24T05:43:15;10.10;99.90
52879;DHT22;38747;53.140;6.498;2023-04-24T05:45:46;10.10;99.90
52879;DHT22;38747;53.140;6.498;2023-04-24T05:48:14;10.10;99.90
52879;DHT22;38747;53.140;6.498;2023-04-24T05:51:01;10.10;99.90
52879;DHT22;38747;53.140;6.498;2023-04-24T05:53:27;10.10;99.90
52879;DHT22;38747;53.140;6.498;2023-04-24T05:55:54;10.00;99.90
52879;DHT22;38747;53.140;6.498;2023-04-24T05:58:20;9.90;99.90
52879;DHT22;38747;53.140;6.498;2023-04-24T06:00:45;10.00;99.90
52879;DHT22;38747;53.140;6.498;2023-04-24T06:03:12;9.90;99.90
52879;DHT22;38747;53.140;6.498;2023-04-24T06:05:41;9.90;99.90
52879;DHT22;38747;53.140;6.498;2023-04-24T06:08:06;9.90;99.90
52879;DHT22;38747;53.140;6.498;2023-04-24T06:10:32;9.90;99.90
52879;DHT22;38747;53.140;6.498;2023-04-24T06:12:58;9.90;99.90
52879;DHT22;38747;53.140;6.498;2023-04-24T06:15:30;9.80;99.90
52879;DHT22;38747;53.140;6.498;2023-04-24T06:17:56;9.90;99.90
52879;DHT22;38747;53.140;6.498;2023-04-24T06:20:23;9.90;99.90
52879;DHT22;38747;53.140;6.498;2023-04-24T06:22:48;9.90;99.90
52879;DHT22;38747;53.140;6.498;2023-04-24T06:25:15;9.90;99.90
52879;DHT22;38747;53.140;6.498;2023-04-24T06:27:41;9.80;99.90
52879;DHT22;38747;53.140;6.498;2023-04-24T06:30:07;9.90;99.90
52879;DHT22;38747;53.140;6.498;2023-04-24T06:32:33;9.90;99.90
52879;DHT22;38747;53.140;6.498;2023-04-24T06:34:59;9.90;99.90
52879;DHT22;38747;53.140;6.498;2023-04-24T06:37:25;9.90;99.90
52879;DHT22;38747;53.140;6.498;2023-04-24T06:39:55;9.90;99.90
52879;DHT22;38747;53.140;6.498;2023-04-24T06:45:11;9.90;99.90
52879;DHT22;38747;53.140;6.498;2023-04-24T06:47:37;9.90;99.90
52879;DHT22;38747;53.140;6.498;2023-04-24T06:50:09;10.00;99.90
52879;DHT22;38747;53.140;6.498;2023-04-24T06:52:35;9.90;99.90
52879;DHT22;38747;53.140;6.498;2023-04-24T06:55:04;9.90;99.90
52879;DHT22;38747;53.140;6.498;2023-04-24T06:57:32;9.90;99.90
52879;DHT22;38747;53.140;6.498;2023-04-24T06:59:57;9.90;99.90
52879;DHT22;38747;53.140;6.498;2023-04-24T07:02:24;9.90;99.90
52879;DHT22;38747;53.140;6.498;2023-04-24T07:04:50;10.00;99.90
52879;DHT22;38747;53.140;6.498;2023-04-24T07:07:16;9.90;99.90
52879;DHT22;38747;53.140;6.498;2023-04-24T07:09:42;10.00;99.90
52879;DHT22;38747;53.140;6.498;2023-04-24T07:12:11;10.00;99.90
52879;DHT22;38747;53.140;6.498;2023-04-24T07:14:38;10.00;99.90
52879;DHT22;38747;53.140;6.498;2023-04-24T07:17:04;10.00;99.90
52879;DHT22;38747;53.140;6.498;2023-04-24T07:19:31;10.00;99.90
52879;DHT22;38747;53.140;6.498;2023-04-24T07:21:57;9.90;99.90
52879;DHT22;38747;53.140;6.498;2023-04-24T07:24:26;10.00;99.90
52879;DHT22;38747;53.140;6.498;2023-04-24T07:26:53;9.90;99.90
52879;DHT22;38747;53.140;6.498;2023-04-24T07:29:19;9.90;99.90
52879;DHT22;38747;53.140;6.498;2023-04-24T07:31:46;9.80;99.90
52879;DHT22;38747;53.140;6.498;2023-04-24T07:34:12;9.80;99.90
52879;DHT22;38747;53.140;6.498;2023-04-24T07:36:38;9.80;99.90
52879;DHT22;38747;53.140;6.498;2023-04-24T07:39:07;9.80;99.90
52879;DHT22;38747;53.140;6.498;2023-04-24T07:41:33;9.70;99.90
52879;DHT22;38747;53.140;6.498;2023-04-24T07:44:02;9.70;99.90
52879;DHT22;38747;53.140;6.498;2023-04-24T07:46:28;9.70;99.90
52879;DHT22;38747;53.140;6.498;2023-04-24T07:48:55;9.70;99.90
52879;DHT22;38747;53.140;6.498;2023-04-24T07:51:21;9.70;99.90
52879;DHT22;38747;53.140;6.498;2023-04-24T07:53:54;9.70;99.90
52879;DHT22;38747;53.140;6.498;2023-04-24T07:56:21;9.60;99.90
52879;DHT22;38747;53.140;6.498;2023-04-24T07:58:46;9.50;99.90
52879;DHT22;38747;53.140;6.498;2023-04-24T08:01:12;9.50;99.90
52879;DHT22;38747;53.140;6.498;2023-04-24T08:03:38;9.50;99.90
52879;DHT22;38747;53.140;6.498;2023-04-24T08:06:04;9.50;99.90
52879;DHT22;38747;53.140;6.498;2023-04-24T08:08:30;9.40;99.90
52879;DHT22;38747;53.140;6.498;2023-04-24T08:10:56;9.30;99.90
52879;DHT22;38747;53.140;6.498;2023-04-24T08:13:21;9.40;99.90
52879;DHT22;38747;53.140;6.498;2023-04-24T08:15:47;9.30;99.90
52879;DHT22;38747;53.140;6.498;2023-04-24T08:18:13;9.30;99.90
52879;DHT22;38747;53.140;6.498;2023-04-24T08:20:41;9.30;99.90
52879;DHT22;38747;53.140;6.498;2023-04-24T08:23:07;9.40;99.90
52879;DHT22;38747;53.140;6.498;2023-04-24T08:25:33;9.30;99.90
52879;DHT22;38747;53.140;6.498;2023-04-24T08:28:02;9.30;99.90
52879;DHT22;38747;53.140;6.498;2023-04-24T08:30:30;9.20;99.90
52879;DHT22;38747;53.140;6.498;2023-04-24T08:32:57;9.20;99.90
52879;DHT22;38747;53.140;6.498;2023-04-24T08:35:22;9.20;99.90
52879;DHT22;38747;53.140;6.498;2023-04-24T08:37:52;9.20;99.90
52879;DHT22;38747;53.140;6.498;2023-04-24T08:40:18;9.20;99.90
52879;DHT22;38747;53.140;6.498;2023-04-24T08:42:48;9.10;99.90
52879;DHT22;38747;53.140;6.498;2023-04-24T08:45:14;9.10;99.90
52879;DHT22;38747;53.140;6.498;2023-04-24T08:47:41;9.10;99.90
52879;DHT22;38747;53.140;6.498;2023-04-24T08:50:08;9.10;99.90
52879;DHT22;38747;53.140;6.498;2023-04-24T08:52:35;9.00;99.90
52879;DHT22;38747;53.140;6.498;2023-04-24T08:55:04;9.10;99.90
52879;DHT22;38747;53.140;6.498;2023-04-24T08:57:31;9.00;99.90
52879;DHT22;38747;53.140;6.498;2023-04-24T08:59:58;9.00;99.90
52879;DHT22;38747;53.140;6.498;2023-04-24T09:02:25;9.00;99.90
52879;DHT22;38747;53.140;6.498;2023-04-24T09:04:53;9.00;99.90
52879;DHT22;38747;53.140;6.498;2023-04-24T09:07:22;9.00;99.90
52879;DHT22;38747;53.140;6.498;2023-04-24T09:09:51;9.00;99.90
52879;DHT22;38747;53.140;6.498;2023-04-24T09:12:17;9.00;99.90
52879;DHT22;38747;53.140;6.498;2023-04-24T09:14:45;9.00;99.90
52879;DHT22;38747;53.140;6.498;2023-04-24T09:17:14;9.00;99.90
52879;DHT22;38747;53.140;6.498;2023-04-24T09:19:40;9.00;99.90
52879;DHT22;38747;53.140;6.498;2023-04-24T09:22:07;9.10;99.90
52879;DHT22;38747;53.140;6.498;2023-04-24T09:24:33;9.10;99.90
52879;DHT22;38747;53.140;6.498;2023-04-24T09:27:01;9.00;99.90
52879;DHT22;38747;53.140;6.498;2023-04-24T09:29:27;9.10;99.90
52879;DHT22;38747;53.140;6.498;2023-04-24T09:31:53;9.10;99.90
52879;DHT22;38747;53.140;6.498;2023-04-24T09:34:24;9.10;99.90
52879;DHT22;38747;53.140;6.498;2023-04-24T09:36:54;9.20;99.90
52879;DHT22;38747;53.140;6.498;2023-04-24T09:39:20;9.20;99.90
52879;DHT22;38747;53.140;6.498;2023-04-24T09:41:50;9.20;99.90
52879;DHT22;38747;53.140;6.498;2023-04-24T09:44:24;9.10;99.90
52879;DHT22;38747;53.140;6.498;2023-04-24T09:46:55;9.20;99.90
52879;DHT22;38747;53.140;6.498;2023-04-24T09:49:29;9.20;99.90
52879;DHT22;38747;53.140;6.498;2023-04-24T09:52:11;9.30;99.90
52879;DHT22;38747;53.140;6.498;2023-04-24T09:54:37;9.20;99.90
52879;DHT22;38747;53.140;6.498;2023-04-24T09:57:04;9.30;99.90
52879;DHT22;38747;53.140;6.498;2023-04-24T09:59:30;9.30;99.90
52879;DHT22;38747;53.140;6.498;2023-04-24T10:01:56;9.40;99.90
52879;DHT22;38747;53.140;6.498;2023-04-24T10:04:28;9.50;99.90
52879;DHT22;38747;53.140;6.498;2023-04-24T10:06:55;9.60;99.90
52879;DHT22;38747;53.140;6.498;2023-04-24T10:09:23;9.70;99.90
52879;DHT22;38747;53.140;6.498;2023-04-24T10:11:51;9.90;99.90
52879;DHT22;38747;53.140;6.498;2023-04-24T10:14:21;9.90;99.90
52879;DHT22;38747;53.140;6.498;2023-04-24T10:16:48;10.00;99.90
52879;DHT22;38747;53.140;6.498;2023-04-24T10:19:15;10.10;99.90
52879;DHT22;38747;53.140;6.498;2023-04-24T10:21:43;10.10;99.90
52879;DHT22;38747;53.140;6.498;2023-04-24T10:24:16;10.20;99.90
52879;DHT22;38747;53.140;6.498;2023-04-24T10:26:44;10.20;99.90
52879;DHT22;38747;53.140;6.498;2023-04-24T10:29:14;10.30;99.90
52879;DHT22;38747;53.140;6.498;2023-04-24T10:31:41;10.40;99.90
52879;DHT22;38747;53.140;6.498;2023-04-24T10:34:11;10.40;99.90
52879;DHT22;38747;53.140;6.498;2023-04-24T10:36:41;10.40;99.90
52879;DHT22;38747;53.140;6.498;2023-04-24T10:39:12;10.40;99.90
52879;DHT22;38747;53.140;6.498;2023-04-24T10:41:39;10.40;99.90
52879;DHT22;38747;53.140;6.498;2023-04-24T10:44:09;10.50;99.90
52879;DHT22;38747;53.140;6.498;2023-04-24T10:46:37;10.60;99.90
52879;DHT22;38747;53.140;6.498;2023-04-24T10:49:07;10.70;99.90
52879;DHT22;38747;53.140;6.498;2023-04-24T10:54:26;10.70;99.90
52879;DHT22;38747;53.140;6.498;2023-04-24T10:56:53;10.60;99.90
52879;DHT22;38747;53.140;6.498;2023-04-24T10:59:29;10.60;99.90
52879;DHT22;38747;53.140;6.498;2023-04-24T11:02:03;10.50;99.90
52879;DHT22;38747;53.140;6.498;2023-04-24T11:04:30;10.50;99.90
52879;DHT22;38747;53.140;6.498;2023-04-24T11:06:57;10.60;99.90
52879;DHT22;38747;53.140;6.498;2023-04-24T11:09:32;10.50;99.90
52879;DHT22;38747;53.140;6.498;2023-04-24T11:12:05;10.40;99.90
52879;DHT22;38747;53.140;6.498;2023-04-24T11:17:36;10.40;99.90
52879;DHT22;38747;53.140;6.498;2023-04-24T11:20:11;10.40;99.90
52879;DHT22;38747;53.140;6.498;2023-04-24T11:22:39;10.50;99.90
52879;DHT22;38747;53.140;6.498;2023-04-24T11:25:09;10.40;99.90
52879;DHT22;38747;53.140;6.498;2023-04-24T11:27:44;10.40;99.90
52879;DHT22;38747;53.140;6.498;2023-04-24T11:30:20;10.30;99.90
52879;DHT22;38747;53.140;6.498;2023-04-24T11:32:51;10.30;99.90
52879;DHT22;38747;53.140;6.498;2023-04-24T11:35:18;10.30;99.90
52879;DHT22;38747;53.140;6.498;2023-04-24T11:37:48;10.20;99.90
52879;DHT22;38747;53.140;6.498;2023-04-24T11:40:17;10.20;99.90
52879;DHT22;38747;53.140;6.498;2023-04-24T11:42:46;10.20;99.90
52879;DHT22;38747;53.140;6.498;2023-04-24T11:47:44;10.50;99.90
52879;DHT22;38747;53.140;6.498;2023-04-24T11:50:15;10.50;99.90
52879;DHT22;38747;53.140;6.498;2023-04-24T11:52:42;10.40;99.90
52879;DHT22;38747;53.140;6.498;2023-04-24T11:55:23;10.40;99.90
52879;DHT22;38747;53.140;6.498;2023-04-24T11:57:53;10.30;99.90
52879;DHT22;38747;53.140;6.498;2023-04-24T12:00:29;10.20;99.90
52879;DHT22;38747;53.140;6.498;2023-04-24T12:03:09;10.10;99.90
52879;DHT22;38747;53.140;6.498;2023-04-24T12:05:36;10.00;99.90
52879;DHT22;38747;53.140;6.498;2023-04-24T12:08:01;10.00;99.90
52879;DHT22;38747;53.140;6.498;2023-04-24T12:10:29;9.90;99.90
52879;DHT22;38747;53.140;6.498;2023-04-24T12:12:57;9.80;99.90
52879;DHT22;38747;53.140;6.498;2023-04-24T12:15:23;9.80;99.90
52879;DHT22;38747;53.140;6.498;2023-04-24T12:17:54;9.80;99.90
52879;DHT22;38747;53.140;6.498;2023-04-24T12:20:31;9.80;99.90
52879;DHT22;38747;53.140;6.498;2023-04-24T12:22:59;10.00;99.90
52879;DHT22;38747;53.140;6.498;2023-04-24T12:25:27;10.10;99.90
52879;DHT22;38747;53.140;6.498;2023-04-24T12:30:31;10.40;99.90
52879;DHT22;38747;53.140;6.498;2023-04-24T12:32:58;10.50;99.90
52879;DHT22;38747;53.140;6.498;2023-04-24T12:35:27;10.60;99.90
52879;DHT22;38747;53.140;6.498;2023-04-24T12:37:54;10.60;99.90
52879;DHT22;38747;53.140;6.498;2023-04-24T12:40:21;10.60;99.90
52879;DHT22;38747;53.140;6.498;2023-04-24T12:42:49;10.50;99.90
52879;DHT22;38747;53.140;6.498;2023-04-24T12:45:16;10.50;99.90
52879;DHT22;38747;53.140;6.498;2023-04-24T12:47:43;10.50;99.90
52879;DHT22;38747;53.140;6.498;2023-04-24T12:50:12;10.50;99.90
52879;DHT22;38747;53.140;6.498;2023-04-24T12:52:38;10.70;99.90
52879;DHT22;38747;53.140;6.498;2023-04-24T12:55:05;10.70;99.90
52879;DHT22;38747;53.140;6.498;2023-04-24T12:57:34;10.80;99.90
52879;DHT22;38747;53.140;6.498;2023-04-24T13:00:00;10.80;99.90
52879;DHT22;38747;53.140;6.498;2023-04-24T13:02:30;10.70;99.90
52879;DHT22;38747;53.140;6.498;2023-04-24T13:04:57;10.60;99.90
52879;DHT22;38747;53.140;6.498;2023-04-24T13:07:23;10.60;99.90
52879;DHT22;38747;53.140;6.498;2023-04-24T13:09:50;10.40;99.90
52879;DHT22;38747;53.140;6.498;2023-04-24T13:12:19;10.30;99.90
52879;DHT22;38747;53.140;6.498;2023-04-24T13:14:45;10.30;99.90
52879;DHT22;38747;53.140;6.498;2023-04-24T13:17:11;10.30;99.90
52879;DHT22;38747;53.140;6.498;2023-04-24T13:19:42;10.30;99.90
52879;DHT22;38747;53.140;6.498;2023-04-24T13:22:12;10.40;99.90
52879;DHT22;38747;53.140;6.498;2023-04-24T13:24:38;10.40;99.90
52879;DHT22;38747;53.140;6.498;2023-04-24T13:27:06;10.40;99.90
52879;DHT22;38747;53.140;6.498;2023-04-24T13:29:32;10.60;99.90
52879;DHT22;38747;53.140;6.498;2023-04-24T13:32:00;10.60;99.90
52879;DHT22;38747;53.140;6.498;2023-04-24T13:34:26;10.70;99.90
52879;DHT22;38747;53.140;6.498;2023-04-24T13:36:56;10.70;99.90
52879;DHT22;38747;53.140;6.498;2023-04-24T13:39:23;10.70;99.90
52879;DHT22;38747;53.140;6.498;2023-04-24T13:41:49;10.70;99.90
52879;DHT22;38747;53.140;6.498;2023-04-24T13:44:17;10.70;99.90
52879;DHT22;38747;53.140;6.498;2023-04-24T13:46:44;10.70;99.90
52879;DHT22;38747;53.140;6.498;2023-04-24T13:49:11;10.70;99.90
52879;DHT22;38747;53.140;6.498;2023-04-24T13:51:37;10.70;99.90
52879;DHT22;38747;53.140;6.498;2023-04-24T13:54:03;10.60;99.90
52879;DHT22;38747;53.140;6.498;2023-04-24T13:56:28;10.50;99.90
52879;DHT22;38747;53.140;6.498;2023-04-24T13:58:54;10.40;99.90
52879;DHT22;38747;53.140;6.498;2023-04-24T14:01:20;10.40;99.90
52879;DHT22;38747;53.140;6.498;2023-04-24T14:03:49;10.40;99.90
52879;DHT22;38747;53.140;6.498;2023-04-24T14:06:15;10.30;99.90
52879;DHT22;38747;53.140;6.498;2023-04-24T14:08:41;10.20;99.90
52879;DHT22;38747;53.140;6.498;2023-04-24T14:11:07;10.20;99.90
52879;DHT22;38747;53.140;6.498;2023-04-24T14:13:33;10.00;99.90
52879;DHT22;38747;53.140;6.498;2023-04-24T14:15:58;9.90;99.90
52879;DHT22;38747;53.140;6.498;2023-04-24T14:18:27;9.80;99.90
52879;DHT22;38747;53.140;6.498;2023-04-24T14:20:53;9.80;99.90
52879;DHT22;38747;53.140;6.498;2023-04-24T14:23:18;9.70;99.90
52879;DHT22;38747;53.140;6.498;2023-04-24T14:25:44;9.70;99.90
52879;DHT22;38747;53.140;6.498;2023-04-24T14:28:11;9.70;99.90
52879;DHT22;38747;53.140;6.498;2023-04-24T14:30:36;9.60;99.90
52879;DHT22;38747;53.140;6.498;2023-04-24T14:33:03;9.60;99.90
52879;DHT22;38747;53.140;6.498;2023-04-24T14:35:29;9.70;99.90
52879;DHT22;38747;53.140;6.498;2023-04-24T14:37:57;9.80;99.90
52879;DHT22;38747;53.140;6.498;2023-04-24T14:40:23;9.90;99.90
52879;DHT22;38747;53.140;6.498;2023-04-24T14:42:48;10.00;99.90
52879;DHT22;38747;53.140;6.498;2023-04-24T14:45:14;10.00;99.90
52879;DHT22;38747;53.140;6.498;2023-04-24T14:47:40;9.90;99.90
52879;DHT22;38747;53.140;6.498;2023-04-24T14:50:07;9.90;99.90
52879;DHT22;38747;53.140;6.498;2023-04-24T14:52:33;9.80;99.90
52879;DHT22;38747;53.140;6.498;2023-04-24T14:54:59;9.90;99.90
52879;DHT22;38747;53.140;6.498;2023-04-24T14:57:25;9.90;99.90
52879;DHT22;38747;53.140;6.498;2023-04-24T14:59:54;9.90;99.90
52879;DHT22;38747;53.140;6.498;2023-04-24T15:02:20;9.90;99.90
52879;DHT22;38747;53.140;6.498;2023-04-24T15:04:45;9.80;99.90
52879;DHT22;38747;53.140;6.498;2023-04-24T15:07:11;9.80;99.90
52879;DHT22;38747;53.140;6.498;2023-04-24T15:09:37;9.80;99.90
52879;DHT22;38747;53.140;6.498;2023-04-24T15:12:03;9.80;99.90
52879;DHT22;38747;53.140;6.498;2023-04-24T15:14:29;9.80;99.90
52879;DHT22;38747;53.140;6.498;2023-04-24T15:16:55;9.80;99.90
52879;DHT22;38747;53.140;6.498;2023-04-24T15:19:20;9.80;99.90
52879;DHT22;38747;53.140;6.498;2023-04-24T15:21:46;9.80;99.90
52879;DHT22;38747;53.140;6.498;2023-04-24T15:24:12;9.80;99.90
52879;DHT22;38747;53.140;6.498;2023-04-24T15:26:37;9.90;99.90
52879;DHT22;38747;53.140;6.498;2023-04-24T15:29:03;9.70;99.90
52879;DHT22;38747;53.140;6.498;2023-04-24T15:31:29;9.70;99.90
52879;DHT22;38747;53.140;6.498;2023-04-24T15:33:54;9.80;99.90
52879;DHT22;38747;53.140;6.498;2023-04-24T15:36:20;9.80;99.90
52879;DHT22;38747;53.140;6.498;2023-04-24T15:38:47;9.70;99.90
52879;DHT22;38747;53.140;6.498;2023-04-24T15:41:13;9.80;99.90
52879;DHT22;38747;53.140;6.498;2023-04-24T15:43:38;9.80;99.90
52879;DHT22;38747;53.140;6.498;2023-04-24T15:46:07;9.70;99.90
52879;DHT22;38747;53.140;6.498;2023-04-24T15:48:33;9.70;99.90
52879;DHT22;38747;53.140;6.498;2023-04-24T15:50:58;9.70;99.90